FD95 weather

CLOSED Goose Nest Seaplane Base
Santa Rosa Beach, Florida, United States

Public forecast

Using degrees Fahrenheit for public forecast. Weather courtesy of forecast.io.

METAR (pilot weather report)

Closest report is Destin Executive Airport, 14.6 nm (27.1 km) W. Retrieved 2018/10/19 17:03 UTC (26 minutes ago):

KDTS 191703Z VRB06KT 10SM SCT014 26/22 A3020 RMK AO2 T02610217

TAF (pilot weather forecast)

Forecast is more than 6 hours old.

Closest forecast is Destin-Ft Walton Beach Airport, 18.1 nm (33.6 km) WNW. Retrieved 2018/10/19 09:09 UTC (8 hours ago):

TAF TAF KVPS 190900Z 1909/2015 07006KT 9999 SCT012 SCT250 QNH3016INS BECMG 1917/1918 17009KT 9999 VCSH FEW025 SCT250 QNH3014INS BECMG 1922/1923 23008KT 9999 NSW FEW030 SCT250 QNH3005INS BECMG 2003/2004 02004KT 3200 BR FEW010 SCT250 QNH3006INS BECMG 2005/2006 03003KT 0800 FG FEW010 FEW250 QNH3003INS TX30/1920Z TN18/2009Z